Create Tblcommutelog Verified Points Advance Search
| # | Trip ID | Id Commuter | Trip Date | Trip Num | Current Lat | Current Lng | Delta Distance | Current Time | Activity | Activity Confidence | Current Speed | |
|---|---|---|---|---|---|---|---|---|---|---|---|---|
| 72641 | 251215_784996_16653054_1635 | 784996 | (not set) | (not set) | 39.286693908245 | -76.606228325925 | 2.2436 | 2025-12-15 16:47:25 | still | 33 | 3.4869062201042 | |
| 72642 | 251215_779684_16420702_1610 | 779684 | (not set) | (not set) | 39.4418786576 | -76.998044536336 | 23.5604 | 2025-12-15 16:47:25 | in_vehicle | 100 | 10.92563948966 | |
| 72643 | 251215_785997_16654252_1601 | 785997 | (not set) | (not set) | 39.165160940065 | -76.697047529814 | 27.5731 | 2025-12-15 16:47:11 | still | 33 | 17.912863107638 | |
| 72644 | 251215_785997_16654252_1601 | 785997 | (not set) | (not set) | 39.182370277866 | -76.693041814976 | 28.7796 | 2025-12-15 16:47:25 | in_vehicle | 100 | 17.783221722532 | |
| 72645 | 251215_785674_16653838_1629 | 785674 | (not set) | (not set) | 39.112745666667 | -77.189754166667 | 9.9459 | 2025-12-15 16:47:26 | still | 33 | 11.958300177922 | |
| 72646 | 251215_788423_16657042_1554 | 788423 | (not set) | (not set) | 38.808162913411 | -77.44925279183 | 37.9656 | 2025-12-15 16:47:26 | in_vehicle | 100 | 1.0371310808515 | |
| 72647 | 251215_788423_16657042_1555 | 788423 | (not set) | (not set) | 38.808162913411 | -77.44925279183 | 37.9656 | 2025-12-15 16:47:26 | in_vehicle | 100 | 1.0371310808515 | |
| 72648 | 251215_788956_16657708_1601 | 788956 | (not set) | (not set) | 39.00674138421 | -77.492590082834 | 46.6052 | 2025-12-15 16:47:27 | in_vehicle | 100 | 13.858217028619 | |
| 72649 | 251215_785997_16654252_1601 | 785997 | (not set) | (not set) | 39.176850803233 | -76.695310967114 | 25.509 | 2025-12-15 16:47:10 | still | 33 | 17.47923502642 | |
| 72650 | 251215_769460_16636522_1640 | 769460 | (not set) | (not set) | 38.888595922226 | -77.028518937816 | 0.2739 | 2025-12-15 16:47:27 | on_foot | 66 | -0.44703925898772 | |
| 72651 | 251215_788700_6430420_1630 | 788700 | (not set) | (not set) | 39.071431872944 | -76.868123181653 | 7.6656 | 2025-12-15 16:47:28 | in_vehicle | 100 | 7.3090918844493 | |
| 72652 | 251215_739499_16604603_1614 | 739499 | (not set) | (not set) | 38.963983947961 | -77.086688395081 | 5.111 | 2025-12-15 16:47:28 | in_vehicle | 100 | -0.44703925898772 | |
| 72653 | 251215_783628_16651358_1637 | 783628 | (not set) | (not set) | 38.897876257665 | -77.007272888605 | 0.1568 | 2025-12-15 16:47:29 | in_vehicle | 100 | -0.44703925898772 | |
| 72654 | 260113_790428_16659445_1807 | 790428 | (not set) | (not set) | 38.895550384404 | -77.070888541331 | 1.8643 | 2026-01-13 18:23:45 | unknown | 100 | -0.44703925898772 | |
| 72655 | 260113_787477_16655969_1805 | 787477 | (not set) | (not set) | 39.2940914 | -76.6197937 | 0.3919 | 2026-01-13 18:15:01 | still | 100 | 3.786422523626 | |
| 72656 | 260113_764454_16507126_1806 | 764454 | (not set) | (not set) | 38.890840545544 | -77.16502158787 | 8.062 | 2026-01-13 18:26:07 | in_vehicle | 100 | 11.091044015485 | |
| 72657 | 260113_785447_16655759_1759 | 785447 | (not set) | (not set) | 39.047383788677 | -76.738459112488 | 18.6939 | 2026-01-13 18:27:15 | in_vehicle | 100 | 15.100986168605 | |
| 72658 | 260113_785067_16653138_1808 | 785067 | (not set) | (not set) | 38.887121338628 | -77.064762705841 | 1.6885 | 2026-01-13 18:28:08 | in_vehicle | 100 | 9.0570153870913 | |
| 72659 | 260113_763436_16630288_1756 | 763436 | (not set) | (not set) | 38.9379589 | -76.9575362 | 2.4266 | 2026-01-13 18:06:59 | on_bicycle | 100 | 3.4556134719751 | |
| 72660 | 260113_785067_16653138_1808 | 785067 | (not set) | (not set) | 38.878430296085 | -77.057893841398 | 3.0926 | 2026-01-13 18:29:44 | in_vehicle | 100 | 12.436632185038 |